createdAt,value
2018-12-30T00:01:52.339Z,4.70
2018-12-30T00:04:19.912Z,4.70
2018-12-30T00:06:48.286Z,4.80
2018-12-30T00:09:16.633Z,4.80
2018-12-30T00:11:44.206Z,4.80
2018-12-30T00:14:11.811Z,4.80
2018-12-30T00:16:39.384Z,4.80
2018-12-30T00:19:06.966Z,4.80
2018-12-30T00:21:34.567Z,4.80
2018-12-30T00:24:02.135Z,4.80
2018-12-30T00:26:30.522Z,4.80
2018-12-30T00:28:58.862Z,4.80
2018-12-30T00:31:26.436Z,4.80
2018-12-30T00:33:54.043Z,4.80
2018-12-30T00:36:21.656Z,4.90
2018-12-30T00:38:49.245Z,5.10
2018-12-30T00:41:17.600Z,5.10
2018-12-30T00:43:45.199Z,5.10
2018-12-30T00:46:12.767Z,5.10
2018-12-30T00:48:40.378Z,5.00
2018-12-30T00:51:07.963Z,5.00
2018-12-30T00:53:35.583Z,4.90
2018-12-30T00:56:03.159Z,4.90
2018-12-30T00:58:31.114Z,4.90
2018-12-30T01:00:58.371Z,4.90
2018-12-30T01:03:25.919Z,5.00
2018-12-30T01:05:53.598Z,5.10
2018-12-30T01:08:21.114Z,5.10
2018-12-30T01:10:49.418Z,5.10
2018-12-30T01:13:17.005Z,5.10
2018-12-30T01:15:44.584Z,5.10
2018-12-30T01:18:12.189Z,5.10
2018-12-30T01:20:39.765Z,5.10
2018-12-30T01:23:07.366Z,5.10
2018-12-30T01:25:34.983Z,5.10
2018-12-30T01:28:03.313Z,5.10
2018-12-30T01:30:30.886Z,5.10
2018-12-30T01:32:58.494Z,5.10
2018-12-30T01:35:26.057Z,5.30
2018-12-30T01:37:54.246Z,5.30
2018-12-30T01:40:21.818Z,5.30
2018-12-30T01:42:49.429Z,5.30
2018-12-30T01:45:16.993Z,5.30
2018-12-30T01:47:44.564Z,5.40
2018-12-30T01:50:12.178Z,5.60
2018-12-30T01:52:39.745Z,5.60
2018-12-30T01:55:07.328Z,5.50
2018-12-30T01:57:35.696Z,5.40
2018-12-30T02:00:03.274Z,5.40
2018-12-30T02:02:31.640Z,5.30
2018-12-30T02:04:59.991Z,5.30
2018-12-30T02:07:27.596Z,5.30
2018-12-30T02:09:55.920Z,5.20
2018-12-30T02:12:23.517Z,5.20
2018-12-30T02:14:51.087Z,5.10
2018-12-30T02:17:19.732Z,5.10
2018-12-30T02:19:47.504Z,5.10
2018-12-30T02:22:15.383Z,5.10
2018-12-30T02:24:42.977Z,5.20
2018-12-30T02:27:11.322Z,5.20
2018-12-30T02:29:39.297Z,5.20
2018-12-30T02:32:06.915Z,5.30
2018-12-30T02:34:34.484Z,5.40
2018-12-30T02:37:02.092Z,5.50
2018-12-30T02:39:29.668Z,5.50
2018-12-30T02:41:58.000Z,5.60
2018-12-30T02:44:25.596Z,5.70
2018-12-30T02:46:53.175Z,5.70
2018-12-30T02:49:21.548Z,5.70
2018-12-30T02:51:50.363Z,5.80
2018-12-30T02:54:17.473Z,5.70
2018-12-30T02:56:45.417Z,5.80
2018-12-30T02:59:13.017Z,5.80
2018-12-30T03:01:40.635Z,5.90
2018-12-30T03:04:08.212Z,6.00
2018-12-30T03:06:35.783Z,6.00
2018-12-30T03:09:03.382Z,6.00
2018-12-30T03:11:31.717Z,6.10
2018-12-30T03:13:59.312Z,6.10
2018-12-30T03:16:27.655Z,6.20
2018-12-30T03:18:55.252Z,6.20
2018-12-30T03:21:23.593Z,6.20
2018-12-30T03:23:51.315Z,6.10
2018-12-30T03:26:18.893Z,6.10
2018-12-30T03:28:46.492Z,6.10
2018-12-30T03:31:14.066Z,6.10
2018-12-30T03:33:42.026Z,6.10
2018-12-30T03:36:09.601Z,6.20
2018-12-30T03:38:37.180Z,6.30
2018-12-30T03:41:04.807Z,6.40
2018-12-30T03:43:32.370Z,6.40
2018-12-30T03:45:59.984Z,6.30
2018-12-30T03:48:27.564Z,6.20
2018-12-30T03:50:55.137Z,6.30
2018-12-30T03:53:22.729Z,6.30
2018-12-30T03:55:50.317Z,6.30
2018-12-30T03:58:18.681Z,6.20
2018-12-30T04:00:47.028Z,6.40
2018-12-30T04:03:14.649Z,6.40
2018-12-30T04:05:42.223Z,6.40
2018-12-30T04:08:09.794Z,6.30
2018-12-30T04:10:37.404Z,6.20
2018-12-30T04:13:04.989Z,6.20
2018-12-30T04:15:33.605Z,6.00
2018-12-30T04:18:01.182Z,6.00
2018-12-30T04:20:28.768Z,6.00
2018-12-30T04:22:56.357Z,5.90
2018-12-30T04:25:24.706Z,5.90
2018-12-30T04:27:52.308Z,5.90
2018-12-30T04:30:19.888Z,6.00
2018-12-30T04:32:47.460Z,6.10
2018-12-30T04:35:15.053Z,6.10
2018-12-30T04:37:42.624Z,6.10
2018-12-30T04:40:10.227Z,6.10
2018-12-30T04:42:37.797Z,6.00
2018-12-30T04:45:05.398Z,6.00
2018-12-30T04:47:32.998Z,5.90
2018-12-30T04:50:01.645Z,5.90
2018-12-30T04:52:29.221Z,5.90
2018-12-30T04:54:56.790Z,5.90
2018-12-30T04:57:24.377Z,5.80
2018-12-30T04:59:51.952Z,5.90
2018-12-30T05:02:19.560Z,6.00
2018-12-30T05:04:47.165Z,6.00
2018-12-30T05:07:14.808Z,6.00
2018-12-30T05:09:42.348Z,6.00
2018-12-30T05:12:09.945Z,6.10
2018-12-30T05:14:37.516Z,6.00
2018-12-30T05:17:05.115Z,6.00
2018-12-30T05:19:32.699Z,5.90
2018-12-30T05:22:00.303Z,5.90
2018-12-30T05:24:27.884Z,5.90
2018-12-30T05:26:55.461Z,5.90
2018-12-30T05:29:23.481Z,5.80
2018-12-30T05:31:51.020Z,5.80
2018-12-30T05:34:19.378Z,6.10
2018-12-30T05:36:46.979Z,6.10
2018-12-30T05:39:15.325Z,6.20
2018-12-30T05:41:43.286Z,6.10
2018-12-30T05:44:10.865Z,6.10
2018-12-30T05:46:38.438Z,6.20
2018-12-30T05:49:06.800Z,6.20
2018-12-30T05:51:34.378Z,6.20
2018-12-30T05:54:02.742Z,6.20
2018-12-30T05:56:31.964Z,6.20
2018-12-30T05:58:57.910Z,6.20
2018-12-30T06:01:25.481Z,6.30
2018-12-30T06:03:53.369Z,6.30
2018-12-30T06:06:20.968Z,6.20
2018-12-30T06:08:48.572Z,6.10
2018-12-30T06:11:17.285Z,6.00
2018-12-30T06:13:44.858Z,6.00
2018-12-30T06:16:12.485Z,6.00
2018-12-30T06:18:40.057Z,6.00
2018-12-30T06:21:07.634Z,6.10
2018-12-30T06:23:35.236Z,6.10
2018-12-30T06:26:03.579Z,6.00
2018-12-30T06:28:31.188Z,6.00
2018-12-30T06:30:59.526Z,6.10
2018-12-30T06:33:27.460Z,6.10
2018-12-30T06:35:55.037Z,6.10
2018-12-30T06:38:22.619Z,6.20
2018-12-30T06:40:50.221Z,6.20
2018-12-30T06:43:17.797Z,6.20
2018-12-30T06:45:45.400Z,6.20
2018-12-30T06:48:12.973Z,6.20
2018-12-30T06:50:40.573Z,6.10
2018-12-30T06:53:08.145Z,6.10
2018-12-30T06:55:35.717Z,6.10
2018-12-30T06:58:03.313Z,6.10
2018-12-30T07:00:30.893Z,6.10
2018-12-30T07:02:58.497Z,6.00
2018-12-30T07:05:26.074Z,6.00
2018-12-30T07:07:53.649Z,5.90
2018-12-30T07:10:21.366Z,5.80
2018-12-30T07:12:49.893Z,5.80
2018-12-30T07:15:18.502Z,5.80
2018-12-30T07:17:46.077Z,5.80
2018-12-30T07:20:14.422Z,5.80
2018-12-30T07:22:42.025Z,5.80
2018-12-30T07:25:10.360Z,5.80
2018-12-30T07:27:37.962Z,5.80
2018-12-30T07:30:06.311Z,5.80
2018-12-30T07:32:33.910Z,5.80
2018-12-30T07:35:01.504Z,5.80
2018-12-30T07:37:29.090Z,5.70
2018-12-30T07:39:56.686Z,5.70
2018-12-30T07:42:24.346Z,5.70
2018-12-30T07:44:51.928Z,5.70
2018-12-30T07:47:20.301Z,5.70
2018-12-30T07:49:48.640Z,5.70
2018-12-30T07:52:16.242Z,5.60
2018-12-30T07:54:44.581Z,5.60
2018-12-30T07:57:12.154Z,5.60
2018-12-30T07:59:39.751Z,5.50
2018-12-30T08:02:08.089Z,5.50
2018-12-30T08:04:35.685Z,5.50
2018-12-30T08:07:04.073Z,5.60
2018-12-30T08:09:31.701Z,5.60
2018-12-30T08:11:59.336Z,5.80
2018-12-30T08:14:26.945Z,5.80
2018-12-30T08:16:54.502Z,5.90
2018-12-30T08:19:22.098Z,5.90
2018-12-30T08:21:50.744Z,6.00
2018-12-30T08:24:18.384Z,5.90
2018-12-30T08:26:45.926Z,5.80
2018-12-30T08:29:13.536Z,5.90
2018-12-30T08:31:41.199Z,6.00
2018-12-30T08:34:08.769Z,6.00
2018-12-30T08:36:37.109Z,5.80
2018-12-30T08:39:04.693Z,5.80
2018-12-30T08:41:32.284Z,5.70
2018-12-30T08:44:00.703Z,5.70
2018-12-30T08:46:29.416Z,5.70
2018-12-30T08:48:57.002Z,5.70
2018-12-30T08:51:25.342Z,5.80
2018-12-30T08:53:52.943Z,5.80
2018-12-30T08:56:21.292Z,5.80
2018-12-30T08:58:49.034Z,5.80
2018-12-30T09:01:16.604Z,5.80
2018-12-30T09:03:44.214Z,5.80
2018-12-30T09:06:12.558Z,5.80
2018-12-30T09:08:40.208Z,5.80
2018-12-30T09:11:07.805Z,5.80
2018-12-30T09:13:35.430Z,5.80
2018-12-30T09:16:03.006Z,5.80
2018-12-30T09:18:30.685Z,5.80
2018-12-30T09:20:58.291Z,5.80
2018-12-30T09:23:26.280Z,5.80
2018-12-30T09:25:56.922Z,5.80
2018-12-30T09:28:24.575Z,5.80
2018-12-30T09:30:52.177Z,5.80
2018-12-30T09:33:19.810Z,5.80
2018-12-30T09:35:47.428Z,5.90
2018-12-30T09:38:15.774Z,6.10
2018-12-30T09:40:43.743Z,6.00
2018-12-30T09:43:11.349Z,6.10
2018-12-30T09:45:39.731Z,6.20
2018-12-30T09:48:08.113Z,6.30
2018-12-30T09:50:35.677Z,6.30
2018-12-30T09:53:03.654Z,6.30
2018-12-30T09:55:31.219Z,6.30
2018-12-30T09:57:58.823Z,6.50
2018-12-30T10:00:26.447Z,6.50
2018-12-30T10:02:54.772Z,6.60
2018-12-30T10:05:22.766Z,6.60
2018-12-30T10:07:50.353Z,6.60
2018-12-30T10:10:17.966Z,6.70
2018-12-30T10:12:45.560Z,6.70
2018-12-30T10:15:13.145Z,6.70
2018-12-30T10:17:41.084Z,6.60
2018-12-30T10:20:08.654Z,6.60
2018-12-30T10:22:36.995Z,6.60
2018-12-30T10:25:04.594Z,6.50
2018-12-30T10:27:32.557Z,6.50
2018-12-30T10:30:00.245Z,6.60
2018-12-30T10:32:27.708Z,6.70
2018-12-30T10:34:55.313Z,6.70
2018-12-30T10:37:22.900Z,6.70
2018-12-30T10:39:51.294Z,6.70
2018-12-30T10:42:19.653Z,6.70
2018-12-30T10:44:47.266Z,6.70
2018-12-30T10:47:15.166Z,6.70
2018-12-30T10:49:42.818Z,6.70
2018-12-30T10:52:10.457Z,6.70
2018-12-30T10:54:38.768Z,6.90
2018-12-30T10:57:06.445Z,6.90
2018-12-30T10:59:34.020Z,7.10
2018-12-30T11:02:02.371Z,7.20
2018-12-30T11:04:29.975Z,7.20
2018-12-30T11:06:58.638Z,7.10
2018-12-30T11:09:26.193Z,7.10
2018-12-30T11:11:53.770Z,7.10
2018-12-30T11:14:23.151Z,7.30
2018-12-30T11:16:50.742Z,7.30
2018-12-30T11:19:19.077Z,7.40
2018-12-30T11:21:46.945Z,7.30
2018-12-30T11:24:14.522Z,7.40
2018-12-30T11:26:42.138Z,7.40
2018-12-30T11:29:09.726Z,7.40
2018-12-30T11:31:37.297Z,7.40
2018-12-30T11:34:04.904Z,7.40
2018-12-30T11:36:33.313Z,7.60
2018-12-30T11:39:00.927Z,7.60
2018-12-30T11:41:28.511Z,7.60
2018-12-30T11:43:56.851Z,7.60
2018-12-30T11:46:24.446Z,7.60
2018-12-30T11:48:52.811Z,7.70
2018-12-30T11:51:20.428Z,7.70
2018-12-30T11:53:48.006Z,7.70
2018-12-30T11:56:15.581Z,7.70
2018-12-30T11:58:43.478Z,7.70
2018-12-30T12:01:11.839Z,7.60
2018-12-30T12:03:39.406Z,7.60
2018-12-30T12:06:07.011Z,7.60
2018-12-30T12:08:34.589Z,7.60
2018-12-30T12:11:02.535Z,7.60
2018-12-30T12:13:30.364Z,7.60
2018-12-30T12:15:57.904Z,7.60
2018-12-30T12:18:25.539Z,7.70
2018-12-30T12:20:53.142Z,7.70
2018-12-30T12:23:21.210Z,7.80
2018-12-30T12:25:48.787Z,7.80
2018-12-30T12:28:16.357Z,7.90
2018-12-30T12:30:44.829Z,7.90
2018-12-30T12:33:12.462Z,7.80
2018-12-30T12:35:40.037Z,7.90
2018-12-30T12:38:07.647Z,7.90
2018-12-30T12:40:35.216Z,7.90
2018-12-30T12:43:02.826Z,7.80
2018-12-30T12:45:30.404Z,7.80
2018-12-30T12:47:58.035Z,7.80
2018-12-30T12:50:25.610Z,7.80
2018-12-30T12:52:53.188Z,7.80
2018-12-30T12:55:20.858Z,7.80
2018-12-30T12:57:48.432Z,7.90
2018-12-30T13:00:16.781Z,7.90
2018-12-30T13:02:44.407Z,7.90
2018-12-30T13:05:12.294Z,7.90
2018-12-30T13:07:39.857Z,7.90
2018-12-30T13:10:07.505Z,7.90
2018-12-30T13:12:35.078Z,7.90
2018-12-30T13:15:02.654Z,7.90
2018-12-30T13:17:30.256Z,7.80
2018-12-30T13:19:58.591Z,7.80
2018-12-30T13:22:26.557Z,7.70
2018-12-30T13:24:54.132Z,7.70
2018-12-30T13:27:21.709Z,7.80
2018-12-30T13:29:50.079Z,8.10
2018-12-30T13:32:17.649Z,8.10
2018-12-30T13:34:45.243Z,8.10
2018-12-30T13:37:12.850Z,8.10
2018-12-30T13:39:40.562Z,8.10
2018-12-30T13:42:08.140Z,8.00
2018-12-30T13:44:35.739Z,7.90
2018-12-30T13:47:03.346Z,7.90
2018-12-30T13:49:32.811Z,7.80
2018-12-30T13:52:00.389Z,7.80
2018-12-30T13:54:28.747Z,7.80
2018-12-30T13:56:56.349Z,7.80
2018-12-30T13:59:25.021Z,7.80
2018-12-30T14:01:52.831Z,7.80
2018-12-30T14:04:20.416Z,7.90
2018-12-30T14:06:47.992Z,7.80
2018-12-30T14:09:15.607Z,7.70
2018-12-30T14:11:43.191Z,7.70
2018-12-30T14:14:10.766Z,7.70
2018-12-30T14:16:38.491Z,7.70
2018-12-30T14:19:06.802Z,7.50
2018-12-30T14:21:34.373Z,7.50
2018-12-30T14:24:02.398Z,7.50
2018-12-30T14:26:29.968Z,7.40
2018-12-30T14:28:57.860Z,7.40
2018-12-30T14:31:25.753Z,7.40
2018-12-30T14:33:53.699Z,7.40
2018-12-30T14:36:21.280Z,7.40
2018-12-30T14:38:49.283Z,7.50
2018-12-30T14:41:17.618Z,7.50
2018-12-30T14:43:45.193Z,7.50
2018-12-30T14:46:12.986Z,7.50
2018-12-30T14:48:40.565Z,7.40
2018-12-30T14:51:08.470Z,7.40
2018-12-30T14:53:37.349Z,7.40
2018-12-30T14:56:05.134Z,7.40
2018-12-30T14:58:33.416Z,7.40
2018-12-30T15:01:01.387Z,7.40
2018-12-30T15:03:28.954Z,7.40
2018-12-30T15:05:56.728Z,7.40
2018-12-30T15:08:24.297Z,7.40
2018-12-30T15:10:51.871Z,7.50
2018-12-30T15:13:21.453Z,7.50
2018-12-30T15:15:49.026Z,7.50
2018-12-30T15:18:17.823Z,7.50
2018-12-30T15:20:44.208Z,7.50
2018-12-30T15:23:11.780Z,7.50
2018-12-30T15:25:39.393Z,7.50
2018-12-30T15:28:07.731Z,7.50
2018-12-30T15:30:35.304Z,7.40
2018-12-30T15:33:02.942Z,7.40
2018-12-30T15:35:30.514Z,7.40
2018-12-30T15:37:58.120Z,7.40
2018-12-30T15:40:26.109Z,7.40
2018-12-30T15:42:53.679Z,7.40
2018-12-30T15:45:21.275Z,7.40
2018-12-30T15:47:48.902Z,7.30
2018-12-30T15:50:16.487Z,7.40
2018-12-30T15:52:44.057Z,7.30
2018-12-30T15:55:19.251Z,7.30
2018-12-30T15:57:39.814Z,7.30
2018-12-30T16:00:07.390Z,7.40
2018-12-30T16:02:35.754Z,7.60
2018-12-30T16:05:03.334Z,7.60
2018-12-30T16:07:31.693Z,7.60
2018-12-30T16:09:59.283Z,7.60
2018-12-30T16:12:26.885Z,7.80
2018-12-30T16:14:54.457Z,7.90
2018-12-30T16:17:22.047Z,7.80
2018-12-30T16:19:50.191Z,7.80
2018-12-30T16:22:17.786Z,7.70
2018-12-30T16:24:45.351Z,7.60
2018-12-30T16:27:13.276Z,7.50
2018-12-30T16:29:40.844Z,7.50
2018-12-30T16:32:08.437Z,7.40
2018-12-30T16:34:37.422Z,7.40
2018-12-30T16:37:04.992Z,7.40
2018-12-30T16:39:32.561Z,7.30
2018-12-30T16:42:00.230Z,7.40
2018-12-30T16:44:28.573Z,7.40
2018-12-30T16:46:56.146Z,7.40
2018-12-30T16:49:23.774Z,7.40
2018-12-30T16:51:52.570Z,7.30
2018-12-30T16:54:20.527Z,7.30
2018-12-30T16:56:48.104Z,7.30
2018-12-30T16:59:15.677Z,7.30
2018-12-30T17:01:43.282Z,7.30
2018-12-30T17:04:11.624Z,7.20
2018-12-30T17:06:40.219Z,7.20
2018-12-30T17:09:07.789Z,7.20
2018-12-30T17:11:35.362Z,7.30
2018-12-30T17:14:03.733Z,7.20
2018-12-30T17:16:31.305Z,7.20
2018-12-30T17:18:59.257Z,7.20
2018-12-30T17:21:26.840Z,7.10
2018-12-30T17:23:55.178Z,7.00
2018-12-30T17:26:22.776Z,7.00
2018-12-30T17:28:50.347Z,7.00
2018-12-30T17:31:18.996Z,6.90
2018-12-30T17:33:46.567Z,6.80
2018-12-30T17:36:14.145Z,6.80
2018-12-30T17:38:41.857Z,6.80
2018-12-30T17:41:09.430Z,6.80
2018-12-30T17:43:37.575Z,6.80
2018-12-30T17:46:05.150Z,6.80
2018-12-30T17:48:32.716Z,6.70
2018-12-30T17:51:00.308Z,6.70
2018-12-30T17:53:27.939Z,6.70
2018-12-30T17:55:56.558Z,6.80
2018-12-30T17:58:24.129Z,6.90
2018-12-30T18:00:52.390Z,6.90
2018-12-30T18:03:19.990Z,7.00
2018-12-30T18:05:48.340Z,7.30
2018-12-30T18:08:17.537Z,7.30
2018-12-30T18:10:43.524Z,7.30
2018-12-30T18:13:11.623Z,7.20
2018-12-30T18:15:39.513Z,7.10
2018-12-30T18:18:07.127Z,7.00
2018-12-30T18:20:34.736Z,7.00
2018-12-30T18:23:02.316Z,6.90
2018-12-30T18:25:29.924Z,6.90
2018-12-30T18:27:57.503Z,6.80
2018-12-30T18:30:25.096Z,6.80
2018-12-30T18:32:52.687Z,6.90
2018-12-30T18:35:20.261Z,6.90
2018-12-30T18:37:48.169Z,6.90
2018-12-30T18:40:15.757Z,6.90
2018-12-30T18:42:44.098Z,6.80
2018-12-30T18:45:11.691Z,6.80
2018-12-30T18:47:39.260Z,6.80
2018-12-30T18:50:07.884Z,6.80
2018-12-30T18:52:35.464Z,6.80
2018-12-30T18:55:03.083Z,6.80
2018-12-30T18:57:30.695Z,6.70
2018-12-30T18:59:58.282Z,6.80
2018-12-30T19:02:25.873Z,6.70
2018-12-30T19:04:53.447Z,6.70
2018-12-30T19:07:21.020Z,6.70
2018-12-30T19:09:48.635Z,6.70
2018-12-30T19:12:16.986Z,6.70
2018-12-30T19:14:44.584Z,6.70
2018-12-30T19:17:12.929Z,6.80
2018-12-30T19:19:40.527Z,6.80
2018-12-30T19:22:08.869Z,7.10
2018-12-30T19:24:36.495Z,7.10
2018-12-30T19:27:04.395Z,7.00
2018-12-30T19:29:32.473Z,7.00
2018-12-30T19:32:00.071Z,7.00
2018-12-30T19:34:28.410Z,7.10
2018-12-30T19:36:56.028Z,7.10
2018-12-30T19:39:23.617Z,7.10
2018-12-30T19:41:51.195Z,7.10
2018-12-30T19:44:19.193Z,7.10
2018-12-30T19:46:46.729Z,7.20
2018-12-30T19:49:14.722Z,7.20
2018-12-30T19:51:42.323Z,7.10
2018-12-30T19:54:09.902Z,7.10
2018-12-30T19:56:37.497Z,7.20
2018-12-30T19:59:05.064Z,7.20
2018-12-30T20:01:32.689Z,7.20
2018-12-30T20:04:00.239Z,7.10
2018-12-30T20:06:28.143Z,7.10
2018-12-30T20:08:56.524Z,7.00
2018-12-30T20:11:23.284Z,7.00
2018-12-30T20:13:50.973Z,7.10
2018-12-30T20:16:19.314Z,7.30
2018-12-30T20:18:46.942Z,7.30
2018-12-30T20:21:14.569Z,7.20
2018-12-30T20:23:42.111Z,7.20
2018-12-30T20:26:09.693Z,7.20
2018-12-30T20:28:38.037Z,7.20
2018-12-30T20:31:05.633Z,7.30
2018-12-30T20:33:33.996Z,7.30
2018-12-30T20:36:01.948Z,7.20
2018-12-30T20:38:29.526Z,7.20
2018-12-30T20:40:57.098Z,7.20
2018-12-30T20:43:24.715Z,7.20
2018-12-30T20:45:52.292Z,7.10
2018-12-30T20:48:19.889Z,7.10
2018-12-30T20:50:47.478Z,7.10
2018-12-30T20:53:15.069Z,7.00
2018-12-30T20:55:42.686Z,7.00
2018-12-30T20:58:10.255Z,7.00
2018-12-30T21:00:37.837Z,7.00
2018-12-30T21:03:05.433Z,7.00
2018-12-30T21:05:33.024Z,7.00
2018-12-30T21:08:01.383Z,7.20
2018-12-30T21:10:28.973Z,7.10
2018-12-30T21:12:57.629Z,7.40
2018-12-30T21:15:25.200Z,7.30
2018-12-30T21:17:52.774Z,7.40
2018-12-30T21:20:21.134Z,7.30
2018-12-30T21:22:48.717Z,7.30
2018-12-30T21:25:17.373Z,7.30
2018-12-30T21:27:44.950Z,7.40
2018-12-30T21:30:12.523Z,7.40
2018-12-30T21:32:40.969Z,7.30
2018-12-30T21:35:08.537Z,7.20
2018-12-30T21:37:36.135Z,7.20
2018-12-30T21:40:04.479Z,7.30
2018-12-30T21:42:32.048Z,7.30
2018-12-30T21:44:59.643Z,7.30
2018-12-30T21:47:27.990Z,7.30
2018-12-30T21:49:55.957Z,7.30
2018-12-30T21:52:23.606Z,7.30
2018-12-30T21:54:51.201Z,7.40
2018-12-30T21:57:18.805Z,7.60
2018-12-30T21:59:46.373Z,7.70
2018-12-30T22:02:13.979Z,7.60
2018-12-30T22:04:41.564Z,7.50
2018-12-30T22:07:09.134Z,7.40
2018-12-30T22:09:36.756Z,7.30
2018-12-30T22:12:04.327Z,7.30
2018-12-30T22:14:31.905Z,7.20
2018-12-30T22:17:00.292Z,7.30
2018-12-30T22:19:28.634Z,7.20
2018-12-30T22:21:56.213Z,7.20
2018-12-30T22:24:23.810Z,7.20
2018-12-30T22:26:51.380Z,7.30
2018-12-30T22:29:18.982Z,7.30
2018-12-30T22:31:46.555Z,7.30
2018-12-30T22:34:14.161Z,7.20
2018-12-30T22:36:41.736Z,7.30
2018-12-30T22:39:09.327Z,7.30
2018-12-30T22:41:36.902Z,7.30
2018-12-30T22:44:04.506Z,7.20
2018-12-30T22:46:32.082Z,7.40
2018-12-30T22:48:59.653Z,7.40
2018-12-30T22:51:27.250Z,7.30
2018-12-30T22:53:54.829Z,7.30
2018-12-30T22:56:23.202Z,7.30
2018-12-30T22:58:51.532Z,7.30
2018-12-30T23:01:19.104Z,7.20
2018-12-30T23:03:46.697Z,7.20
2018-12-30T23:06:14.281Z,7.20
2018-12-30T23:08:42.644Z,7.20
2018-12-30T23:11:10.982Z,7.20
2018-12-30T23:13:38.578Z,7.20
2018-12-30T23:16:06.146Z,7.20
2018-12-30T23:18:34.511Z,7.20
2018-12-30T23:21:02.116Z,7.20
2018-12-30T23:23:29.717Z,7.20
2018-12-30T23:25:57.290Z,7.40
2018-12-30T23:28:25.292Z,7.40
2018-12-30T23:30:52.839Z,7.50
2018-12-30T23:33:21.841Z,7.60
2018-12-30T23:35:48.768Z,7.60
2018-12-30T23:38:16.341Z,7.60
2018-12-30T23:40:43.953Z,7.60
2018-12-30T23:43:11.531Z,7.70
2018-12-30T23:45:39.141Z,7.80
2018-12-30T23:48:07.486Z,7.70
2018-12-30T23:50:35.057Z,7.70
2018-12-30T23:53:02.651Z,7.70
2018-12-30T23:55:30.986Z,7.80
2018-12-30T23:57:58.627Z,7.80
